sensor_id;sensor_type;location;lat;lon;timestamp;P1;durP1;ratioP1;P2;durP2;ratioP2
15931;SDS011;8065;49.520;11.284;2023-09-19T00:00:40;3.53;;;2.30;;
15931;SDS011;8065;49.520;11.284;2023-09-19T00:03:09;4.07;;;2.50;;
15931;SDS011;8065;49.520;11.284;2023-09-19T00:05:38;4.97;;;2.47;;
15931;SDS011;8065;49.520;11.284;2023-09-19T00:08:09;2.40;;;1.90;;
15931;SDS011;8065;49.520;11.284;2023-09-19T00:10:41;3.83;;;2.43;;
15931;SDS011;8065;49.520;11.284;2023-09-19T00:13:09;3.27;;;2.23;;
15931;SDS011;8065;49.520;11.284;2023-09-19T00:15:40;3.80;;;2.20;;
15931;SDS011;8065;49.520;11.284;2023-09-19T00:18:13;4.53;;;2.40;;
15931;SDS011;8065;49.520;11.284;2023-09-19T00:20:42;2.67;;;2.10;;
15931;SDS011;8065;49.520;11.284;2023-09-19T00:23:12;6.17;;;2.23;;
15931;SDS011;8065;49.520;11.284;2023-09-19T00:25:43;2.97;;;2.30;;
15931;SDS011;8065;49.520;11.284;2023-09-19T00:28:11;2.83;;;2.20;;
15931;SDS011;8065;49.520;11.284;2023-09-19T00:30:42;2.13;;;1.90;;
15931;SDS011;8065;49.520;11.284;2023-09-19T00:33:10;3.13;;;2.27;;
15931;SDS011;8065;49.520;11.284;2023-09-19T00:35:46;4.47;;;2.30;;
15931;SDS011;8065;49.520;11.284;2023-09-19T00:38:15;2.73;;;1.90;;
15931;SDS011;8065;49.520;11.284;2023-09-19T00:40:50;1.73;;;1.63;;
15931;SDS011;8065;49.520;11.284;2023-09-19T00:43:19;4.57;;;2.10;;
15931;SDS011;8065;49.520;11.284;2023-09-19T00:45:50;3.63;;;2.10;;
15931;SDS011;8065;49.520;11.284;2023-09-19T00:48:19;2.73;;;2.07;;
15931;SDS011;8065;49.520;11.284;2023-09-19T00:50:50;2.67;;;1.90;;
15931;SDS011;8065;49.520;11.284;2023-09-19T00:53:20;2.70;;;1.70;;
15931;SDS011;8065;49.520;11.284;2023-09-19T00:55:55;2.30;;;1.50;;
15931;SDS011;8065;49.520;11.284;2023-09-19T00:58:23;2.20;;;1.80;;
15931;SDS011;8065;49.520;11.284;2023-09-19T01:00:57;2.40;;;2.00;;
15931;SDS011;8065;49.520;11.284;2023-09-19T01:03:26;2.17;;;1.80;;
15931;SDS011;8065;49.520;11.284;2023-09-19T01:05:55;1.87;;;1.77;;
15931;SDS011;8065;49.520;11.284;2023-09-19T01:08:24;2.70;;;1.80;;
15931;SDS011;8065;49.520;11.284;2023-09-19T01:10:59;2.47;;;1.90;;
15931;SDS011;8065;49.520;11.284;2023-09-19T01:13:41;3.60;;;1.80;;
15931;SDS011;8065;49.520;11.284;2023-09-19T01:16:19;2.70;;;1.90;;
15931;SDS011;8065;49.520;11.284;2023-09-19T01:19:02;3.97;;;1.87;;
15931;SDS011;8065;49.520;11.284;2023-09-19T01:21:49;2.93;;;1.90;;
15931;SDS011;8065;49.520;11.284;2023-09-19T01:24:34;3.63;;;1.83;;
15931;SDS011;8065;49.520;11.284;2023-09-19T01:27:37;1.90;;;1.80;;
15931;SDS011;8065;49.520;11.284;2023-09-19T01:30:32;3.30;;;1.97;;
15931;SDS011;8065;49.520;11.284;2023-09-19T01:33:04;3.63;;;2.03;;
15931;SDS011;8065;49.520;11.284;2023-09-19T01:35:37;3.17;;;1.50;;
15931;SDS011;8065;49.520;11.284;2023-09-19T01:38:06;2.47;;;1.90;;
15931;SDS011;8065;49.520;11.284;2023-09-19T01:40:36;3.20;;;1.70;;
15931;SDS011;8065;49.520;11.284;2023-09-19T01:43:11;2.20;;;1.73;;
15931;SDS011;8065;49.520;11.284;2023-09-19T01:45:50;2.03;;;1.80;;
15931;SDS011;8065;49.520;11.284;2023-09-19T01:48:30;2.10;;;1.90;;
15931;SDS011;8065;49.520;11.284;2023-09-19T01:51:05;4.00;;;1.80;;
15931;SDS011;8065;49.520;11.284;2023-09-19T01:53:35;2.00;;;1.67;;
15931;SDS011;8065;49.520;11.284;2023-09-19T01:56:09;2.37;;;2.17;;
15931;SDS011;8065;49.520;11.284;2023-09-19T01:58:44;2.30;;;1.87;;
15931;SDS011;8065;49.520;11.284;2023-09-19T02:01:18;2.20;;;1.73;;
15931;SDS011;8065;49.520;11.284;2023-09-19T02:03:50;2.57;;;2.07;;
15931;SDS011;8065;49.520;11.284;2023-09-19T02:06:18;2.20;;;1.90;;
15931;SDS011;8065;49.520;11.284;2023-09-19T02:08:47;2.67;;;2.00;;
15931;SDS011;8065;49.520;11.284;2023-09-19T02:11:16;2.33;;;1.80;;
15931;SDS011;8065;49.520;11.284;2023-09-19T02:16:18;5.23;;;1.90;;
15931;SDS011;8065;49.520;11.284;2023-09-19T02:18:47;4.33;;;2.20;;
15931;SDS011;8065;49.520;11.284;2023-09-19T02:21:16;2.50;;;1.83;;
15931;SDS011;8065;49.520;11.284;2023-09-19T02:23:46;3.93;;;1.87;;
15931;SDS011;8065;49.520;11.284;2023-09-19T02:26:16;3.20;;;2.13;;
15931;SDS011;8065;49.520;11.284;2023-09-19T02:28:45;2.93;;;2.00;;
15931;SDS011;8065;49.520;11.284;2023-09-19T02:31:13;2.83;;;1.70;;
15931;SDS011;8065;49.520;11.284;2023-09-19T02:33:44;4.83;;;2.03;;
15931;SDS011;8065;49.520;11.284;2023-09-19T02:36:13;2.13;;;1.93;;
15931;SDS011;8065;49.520;11.284;2023-09-19T02:38:42;3.80;;;2.00;;
15931;SDS011;8065;49.520;11.284;2023-09-19T02:41:10;4.83;;;2.10;;
15931;SDS011;8065;49.520;11.284;2023-09-19T02:43:39;2.77;;;2.17;;
15931;SDS011;8065;49.520;11.284;2023-09-19T02:46:08;4.33;;;2.03;;
15931;SDS011;8065;49.520;11.284;2023-09-19T02:48:37;4.50;;;2.10;;
15931;SDS011;8065;49.520;11.284;2023-09-19T02:51:08;2.90;;;2.27;;
15931;SDS011;8065;49.520;11.284;2023-09-19T02:53:36;2.40;;;1.93;;
15931;SDS011;8065;49.520;11.284;2023-09-19T02:56:05;2.00;;;1.70;;
15931;SDS011;8065;49.520;11.284;2023-09-19T02:58:34;3.93;;;2.13;;
15931;SDS011;8065;49.520;11.284;2023-09-19T03:01:07;2.30;;;2.10;;
15931;SDS011;8065;49.520;11.284;2023-09-19T03:03:37;2.27;;;1.97;;
15931;SDS011;8065;49.520;11.284;2023-09-19T03:06:09;2.47;;;2.00;;
15931;SDS011;8065;49.520;11.284;2023-09-19T03:08:38;3.13;;;1.90;;
15931;SDS011;8065;49.520;11.284;2023-09-19T03:11:10;5.03;;;2.17;;
15931;SDS011;8065;49.520;11.284;2023-09-19T03:13:41;4.10;;;1.93;;
15931;SDS011;8065;49.520;11.284;2023-09-19T03:16:10;4.13;;;1.93;;
15931;SDS011;8065;49.520;11.284;2023-09-19T03:18:40;3.10;;;1.80;;
15931;SDS011;8065;49.520;11.284;2023-09-19T03:21:10;5.83;;;2.40;;
15931;SDS011;8065;49.520;11.284;2023-09-19T03:23:39;2.83;;;2.03;;
15931;SDS011;8065;49.520;11.284;2023-09-19T03:26:08;2.40;;;1.90;;
15931;SDS011;8065;49.520;11.284;2023-09-19T03:28:37;2.70;;;1.90;;
15931;SDS011;8065;49.520;11.284;2023-09-19T03:31:06;2.83;;;1.97;;
15931;SDS011;8065;49.520;11.284;2023-09-19T03:33:35;1.67;;;1.57;;
15931;SDS011;8065;49.520;11.284;2023-09-19T03:36:04;3.10;;;1.87;;
15931;SDS011;8065;49.520;11.284;2023-09-19T03:38:35;1.83;;;1.70;;
15931;SDS011;8065;49.520;11.284;2023-09-19T03:41:04;1.40;;;1.30;;
15931;SDS011;8065;49.520;11.284;2023-09-19T03:43:32;2.63;;;1.70;;
15931;SDS011;8065;49.520;11.284;2023-09-19T03:46:01;3.90;;;1.77;;
15931;SDS011;8065;49.520;11.284;2023-09-19T03:48:30;3.70;;;1.70;;
15931;SDS011;8065;49.520;11.284;2023-09-19T03:50:58;1.67;;;1.50;;
15931;SDS011;8065;49.520;11.284;2023-09-19T03:53:27;2.43;;;1.50;;
15931;SDS011;8065;49.520;11.284;2023-09-19T03:55:58;1.70;;;1.60;;
15931;SDS011;8065;49.520;11.284;2023-09-19T03:58:26;2.10;;;1.50;;
15931;SDS011;8065;49.520;11.284;2023-09-19T04:00:55;3.00;;;1.47;;
15931;SDS011;8065;49.520;11.284;2023-09-19T04:03:23;1.73;;;1.50;;
15931;SDS011;8065;49.520;11.284;2023-09-19T04:05:59;2.70;;;1.60;;
15931;SDS011;8065;49.520;11.284;2023-09-19T04:08:28;1.30;;;1.20;;
15931;SDS011;8065;49.520;11.284;2023-09-19T04:10:59;2.33;;;1.53;;
15931;SDS011;8065;49.520;11.284;2023-09-19T04:13:27;3.30;;;1.73;;
15931;SDS011;8065;49.520;11.284;2023-09-19T04:15:55;2.90;;;1.70;;
15931;SDS011;8065;49.520;11.284;2023-09-19T04:18:24;3.03;;;1.50;;
15931;SDS011;8065;49.520;11.284;2023-09-19T04:20:53;2.90;;;1.60;;
15931;SDS011;8065;49.520;11.284;2023-09-19T04:23:21;3.07;;;1.40;;
15931;SDS011;8065;49.520;11.284;2023-09-19T04:25:50;1.23;;;1.13;;
15931;SDS011;8065;49.520;11.284;2023-09-19T04:28:21;2.13;;;1.43;;
15931;SDS011;8065;49.520;11.284;2023-09-19T04:30:49;2.37;;;1.50;;
15931;SDS011;8065;49.520;11.284;2023-09-19T04:33:18;1.53;;;1.43;;
15931;SDS011;8065;49.520;11.284;2023-09-19T04:35:48;1.40;;;1.30;;
15931;SDS011;8065;49.520;11.284;2023-09-19T04:38:17;1.80;;;1.30;;
15931;SDS011;8065;49.520;11.284;2023-09-19T04:40:45;2.10;;;1.60;;
15931;SDS011;8065;49.520;11.284;2023-09-19T04:43:14;2.57;;;1.50;;
15931;SDS011;8065;49.520;11.284;2023-09-19T04:45:45;2.80;;;1.80;;
15931;SDS011;8065;49.520;11.284;2023-09-19T04:48:14;1.70;;;1.60;;
15931;SDS011;8065;49.520;11.284;2023-09-19T04:50:43;3.17;;;1.50;;
15931;SDS011;8065;49.520;11.284;2023-09-19T04:53:11;2.93;;;1.50;;
15931;SDS011;8065;49.520;11.284;2023-09-19T04:55:40;1.80;;;1.70;;
15931;SDS011;8065;49.520;11.284;2023-09-19T04:58:08;3.60;;;1.60;;
15931;SDS011;8065;49.520;11.284;2023-09-19T05:00:36;2.07;;;1.57;;
15931;SDS011;8065;49.520;11.284;2023-09-19T05:03:07;1.47;;;1.30;;
15931;SDS011;8065;49.520;11.284;2023-09-19T05:05:35;2.33;;;1.33;;
15931;SDS011;8065;49.520;11.284;2023-09-19T05:08:07;4.20;;;1.30;;
15931;SDS011;8065;49.520;11.284;2023-09-19T05:10:36;2.17;;;1.57;;
15931;SDS011;8065;49.520;11.284;2023-09-19T05:13:05;1.60;;;1.30;;
15931;SDS011;8065;49.520;11.284;2023-09-19T05:15:34;2.87;;;1.70;;
15931;SDS011;8065;49.520;11.284;2023-09-19T05:18:06;3.43;;;1.90;;
15931;SDS011;8065;49.520;11.284;2023-09-19T05:20:35;1.80;;;1.53;;
15931;SDS011;8065;49.520;11.284;2023-09-19T05:23:04;3.90;;;1.67;;
15931;SDS011;8065;49.520;11.284;2023-09-19T05:25:34;2.53;;;1.70;;
15931;SDS011;8065;49.520;11.284;2023-09-19T05:28:05;2.47;;;1.60;;
15931;SDS011;8065;49.520;11.284;2023-09-19T05:30:34;3.27;;;1.63;;
15931;SDS011;8065;49.520;11.284;2023-09-19T05:33:03;3.37;;;1.90;;
15931;SDS011;8065;49.520;11.284;2023-09-19T05:35:35;2.50;;;1.73;;
15931;SDS011;8065;49.520;11.284;2023-09-19T05:38:04;2.93;;;2.17;;
15931;SDS011;8065;49.520;11.284;2023-09-19T05:40:34;2.70;;;1.63;;
15931;SDS011;8065;49.520;11.284;2023-09-19T05:43:03;3.63;;;1.90;;
15931;SDS011;8065;49.520;11.284;2023-09-19T05:45:31;5.13;;;2.20;;
15931;SDS011;8065;49.520;11.284;2023-09-19T05:48:10;3.30;;;1.93;;
15931;SDS011;8065;49.520;11.284;2023-09-19T05:50:39;2.73;;;2.23;;
15931;SDS011;8065;49.520;11.284;2023-09-19T05:53:08;1.97;;;1.87;;
15931;SDS011;8065;49.520;11.284;2023-09-19T05:55:39;4.30;;;2.10;;
15931;SDS011;8065;49.520;11.284;2023-09-19T05:58:07;3.00;;;2.13;;
15931;SDS011;8065;49.520;11.284;2023-09-19T06:00:39;4.40;;;2.27;;
15931;SDS011;8065;49.520;11.284;2023-09-19T06:03:12;4.37;;;2.13;;
15931;SDS011;8065;49.520;11.284;2023-09-19T06:05:42;3.47;;;2.23;;
15931;SDS011;8065;49.520;11.284;2023-09-19T06:08:11;2.70;;;1.80;;
15931;SDS011;8065;49.520;11.284;2023-09-19T06:10:39;4.47;;;2.40;;
15931;SDS011;8065;49.520;11.284;2023-09-19T06:13:08;5.47;;;2.03;;
15931;SDS011;8065;49.520;11.284;2023-09-19T06:15:37;2.40;;;2.20;;
15931;SDS011;8065;49.520;11.284;2023-09-19T06:18:10;2.53;;;1.87;;
15931;SDS011;8065;49.520;11.284;2023-09-19T06:20:44;4.50;;;1.80;;
15931;SDS011;8065;49.520;11.284;2023-09-19T06:23:13;1.50;;;1.27;;
15931;SDS011;8065;49.520;11.284;2023-09-19T06:25:42;1.60;;;1.50;;
15931;SDS011;8065;49.520;11.284;2023-09-19T06:28:11;4.50;;;1.87;;
15931;SDS011;8065;49.520;11.284;2023-09-19T06:30:42;3.47;;;1.47;;
15931;SDS011;8065;49.520;11.284;2023-09-19T06:33:13;2.43;;;1.57;;
15931;SDS011;8065;49.520;11.284;2023-09-19T06:35:42;3.00;;;1.50;;
15931;SDS011;8065;49.520;11.284;2023-09-19T06:38:12;1.83;;;1.60;;
15931;SDS011;8065;49.520;11.284;2023-09-19T06:40:40;3.90;;;1.50;;
15931;SDS011;8065;49.520;11.284;2023-09-19T06:43:10;2.80;;;1.57;;
15931;SDS011;8065;49.520;11.284;2023-09-19T06:45:39;2.07;;;1.60;;
15931;SDS011;8065;49.520;11.284;2023-09-19T06:48:07;1.73;;;1.50;;
15931;SDS011;8065;49.520;11.284;2023-09-19T06:50:39;2.70;;;1.53;;
15931;SDS011;8065;49.520;11.284;2023-09-19T06:53:09;2.37;;;1.80;;
15931;SDS011;8065;49.520;11.284;2023-09-19T06:55:38;3.07;;;1.50;;
15931;SDS011;8065;49.520;11.284;2023-09-19T06:58:09;2.93;;;1.57;;
15931;SDS011;8065;49.520;11.284;2023-09-19T07:00:37;5.10;;;1.70;;
15931;SDS011;8065;49.520;11.284;2023-09-19T07:03:06;4.80;;;2.00;;
15931;SDS011;8065;49.520;11.284;2023-09-19T07:05:37;2.00;;;1.50;;
15931;SDS011;8065;49.520;11.284;2023-09-19T07:08:08;2.03;;;1.70;;
15931;SDS011;8065;49.520;11.284;2023-09-19T07:10:38;4.70;;;1.80;;
15931;SDS011;8065;49.520;11.284;2023-09-19T07:13:10;2.57;;;1.93;;
15931;SDS011;8065;49.520;11.284;2023-09-19T07:15:38;1.87;;;1.70;;
15931;SDS011;8065;49.520;11.284;2023-09-19T07:18:11;2.73;;;1.60;;
15931;SDS011;8065;49.520;11.284;2023-09-19T07:20:44;2.80;;;1.50;;
15931;SDS011;8065;49.520;11.284;2023-09-19T07:23:14;1.93;;;1.70;;
15931;SDS011;8065;49.520;11.284;2023-09-19T07:25:43;3.17;;;1.60;;
15931;SDS011;8065;49.520;11.284;2023-09-19T07:28:12;3.40;;;1.63;;
15931;SDS011;8065;49.520;11.284;2023-09-19T07:30:40;3.00;;;1.33;;
15931;SDS011;8065;49.520;11.284;2023-09-19T07:33:09;3.80;;;1.50;;
15931;SDS011;8065;49.520;11.284;2023-09-19T07:35:38;1.73;;;1.30;;
15931;SDS011;8065;49.520;11.284;2023-09-19T07:38:10;4.33;;;1.73;;
15931;SDS011;8065;49.520;11.284;2023-09-19T07:40:38;4.33;;;1.93;;
15931;SDS011;8065;49.520;11.284;2023-09-19T07:43:06;2.67;;;1.67;;
15931;SDS011;8065;49.520;11.284;2023-09-19T07:45:35;3.90;;;1.40;;
15931;SDS011;8065;49.520;11.284;2023-09-19T07:48:04;4.60;;;1.50;;
15931;SDS011;8065;49.520;11.284;2023-09-19T07:50:39;3.77;;;1.60;;
15931;SDS011;8065;49.520;11.284;2023-09-19T07:53:11;3.30;;;1.67;;
15931;SDS011;8065;49.520;11.284;2023-09-19T07:55:40;3.20;;;1.50;;
15931;SDS011;8065;49.520;11.284;2023-09-19T07:58:13;2.33;;;1.40;;
15931;SDS011;8065;49.520;11.284;2023-09-19T08:00:41;2.73;;;1.60;;
15931;SDS011;8065;49.520;11.284;2023-09-19T08:03:09;2.23;;;1.63;;
15931;SDS011;8065;49.520;11.284;2023-09-19T08:05:39;5.13;;;1.70;;
15931;SDS011;8065;49.520;11.284;2023-09-19T08:08:11;4.20;;;1.70;;
15931;SDS011;8065;49.520;11.284;2023-09-19T08:10:39;1.70;;;1.60;;
15931;SDS011;8065;49.520;11.284;2023-09-19T08:13:10;2.43;;;1.43;;
15931;SDS011;8065;49.520;11.284;2023-09-19T08:15:42;2.30;;;1.50;;
15931;SDS011;8065;49.520;11.284;2023-09-19T08:18:11;2.73;;;1.47;;
15931;SDS011;8065;49.520;11.284;2023-09-19T08:20:40;1.93;;;1.60;;
15931;SDS011;8065;49.520;11.284;2023-09-19T08:23:14;4.03;;;1.40;;
15931;SDS011;8065;49.520;11.284;2023-09-19T08:25:43;1.90;;;1.40;;
15931;SDS011;8065;49.520;11.284;2023-09-19T08:28:11;4.30;;;1.47;;
15931;SDS011;8065;49.520;11.284;2023-09-19T08:30:45;2.40;;;1.67;;
15931;SDS011;8065;49.520;11.284;2023-09-19T08:33:13;3.50;;;1.90;;
15931;SDS011;8065;49.520;11.284;2023-09-19T08:35:42;3.10;;;1.50;;
15931;SDS011;8065;49.520;11.284;2023-09-19T08:38:13;3.50;;;1.53;;
15931;SDS011;8065;49.520;11.284;2023-09-19T08:40:42;2.23;;;1.30;;
15931;SDS011;8065;49.520;11.284;2023-09-19T08:43:10;3.13;;;1.30;;
15931;SDS011;8065;49.520;11.284;2023-09-19T08:45:38;2.27;;;1.50;;
15931;SDS011;8065;49.520;11.284;2023-09-19T08:48:18;3.57;;;1.70;;
15931;SDS011;8065;49.520;11.284;2023-09-19T08:50:51;3.80;;;1.50;;
15931;SDS011;8065;49.520;11.284;2023-09-19T08:53:29;2.30;;;1.57;;
15931;SDS011;8065;49.520;11.284;2023-09-19T08:56:03;3.80;;;1.67;;
15931;SDS011;8065;49.520;11.284;2023-09-19T08:58:50;2.33;;;1.50;;
15931;SDS011;8065;49.520;11.284;2023-09-19T09:01:22;2.83;;;1.70;;
15931;SDS011;8065;49.520;11.284;2023-09-19T09:03:51;1.70;;;1.60;;
15931;SDS011;8065;49.520;11.284;2023-09-19T09:06:20;1.73;;;1.30;;
15931;SDS011;8065;49.520;11.284;2023-09-19T09:08:52;2.30;;;1.47;;
15931;SDS011;8065;49.520;11.284;2023-09-19T09:11:21;2.03;;;1.30;;
15931;SDS011;8065;49.520;11.284;2023-09-19T09:13:53;1.33;;;1.20;;
15931;SDS011;8065;49.520;11.284;2023-09-19T09:16:22;1.40;;;1.30;;
15931;SDS011;8065;49.520;11.284;2023-09-19T09:18:51;1.87;;;1.23;;
15931;SDS011;8065;49.520;11.284;2023-09-19T09:21:20;3.37;;;1.20;;
15931;SDS011;8065;49.520;11.284;2023-09-19T09:23:51;3.87;;;1.43;;
15931;SDS011;8065;49.520;11.284;2023-09-19T09:26:24;2.13;;;1.10;;
15931;SDS011;8065;49.520;11.284;2023-09-19T09:29:09;3.43;;;1.63;;
15931;SDS011;8065;49.520;11.284;2023-09-19T09:31:37;1.47;;;1.27;;
15931;SDS011;8065;49.520;11.284;2023-09-19T09:34:07;1.10;;;1.00;;
15931;SDS011;8065;49.520;11.284;2023-09-19T09:36:39;2.63;;;1.53;;
15931;SDS011;8065;49.520;11.284;2023-09-19T09:39:14;3.40;;;1.40;;
15931;SDS011;8065;49.520;11.284;2023-09-19T09:41:50;1.27;;;1.00;;
15931;SDS011;8065;49.520;11.284;2023-09-19T09:44:18;2.60;;;1.40;;
15931;SDS011;8065;49.520;11.284;2023-09-19T09:46:47;1.67;;;1.20;;
15931;SDS011;8065;49.520;11.284;2023-09-19T09:49:40;1.93;;;1.40;;
15931;SDS011;8065;49.520;11.284;2023-09-19T09:52:15;1.53;;;1.40;;
15931;SDS011;8065;49.520;11.284;2023-09-19T09:55:00;1.50;;;1.40;;
15931;SDS011;8065;49.520;11.284;2023-09-19T09:57:30;1.77;;;1.10;;
15931;SDS011;8065;49.520;11.284;2023-09-19T09:59:59;2.63;;;1.60;;
15931;SDS011;8065;49.520;11.284;2023-09-19T10:02:45;1.93;;;1.50;;
15931;SDS011;8065;49.520;11.284;2023-09-19T10:05:14;2.17;;;1.23;;
15931;SDS011;8065;49.520;11.284;2023-09-19T10:07:47;1.70;;;1.10;;
15931;SDS011;8065;49.520;11.284;2023-09-19T10:10:34;1.53;;;0.97;;
15931;SDS011;8065;49.520;11.284;2023-09-19T10:13:19;2.43;;;1.10;;
15931;SDS011;8065;49.520;11.284;2023-09-19T10:15:49;2.60;;;1.10;;
15931;SDS011;8065;49.520;11.284;2023-09-19T10:18:20;1.20;;;1.10;;
15931;SDS011;8065;49.520;11.284;2023-09-19T10:20:50;1.30;;;1.00;;
15931;SDS011;8065;49.520;11.284;2023-09-19T10:23:20;1.73;;;1.00;;
15931;SDS011;8065;49.520;11.284;2023-09-19T10:25:53;1.20;;;1.10;;
15931;SDS011;8065;49.520;11.284;2023-09-19T10:28:22;1.67;;;1.20;;
15931;SDS011;8065;49.520;11.284;2023-09-19T10:30:51;1.23;;;1.10;;
15931;SDS011;8065;49.520;11.284;2023-09-19T10:33:22;2.77;;;0.97;;
15931;SDS011;8065;49.520;11.284;2023-09-19T10:35:52;3.33;;;1.40;;
15931;SDS011;8065;49.520;11.284;2023-09-19T10:38:22;4.10;;;1.37;;
15931;SDS011;8065;49.520;11.284;2023-09-19T10:40:54;2.93;;;1.37;;
15931;SDS011;8065;49.520;11.284;2023-09-19T10:43:26;2.57;;;1.50;;
15931;SDS011;8065;49.520;11.284;2023-09-19T10:46:00;3.23;;;1.60;;
15931;SDS011;8065;49.520;11.284;2023-09-19T10:48:30;4.40;;;1.30;;
15931;SDS011;8065;49.520;11.284;2023-09-19T10:51:01;1.77;;;1.30;;
15931;SDS011;8065;49.520;11.284;2023-09-19T10:53:40;4.20;;;1.50;;
15931;SDS011;8065;49.520;11.284;2023-09-19T10:56:14;3.70;;;1.40;;
15931;SDS011;8065;49.520;11.284;2023-09-19T10:58:46;1.67;;;1.40;;
15931;SDS011;8065;49.520;11.284;2023-09-19T11:01:16;2.83;;;1.20;;
15931;SDS011;8065;49.520;11.284;2023-09-19T11:03:45;1.30;;;1.20;;
15931;SDS011;8065;49.520;11.284;2023-09-19T11:06:15;3.23;;;1.30;;
15931;SDS011;8065;49.520;11.284;2023-09-19T11:08:54;1.70;;;1.40;;
15931;SDS011;8065;49.520;11.284;2023-09-19T11:20:19;1.47;;;1.37;;
15931;SDS011;8065;49.520;11.284;2023-09-19T11:23:22;1.67;;;1.30;;
15931;SDS011;8065;49.520;11.284;2023-09-19T11:25:52;2.37;;;1.50;;
15931;SDS011;8065;49.520;11.284;2023-09-19T11:28:33;3.87;;;1.33;;
15931;SDS011;8065;49.520;11.284;2023-09-19T11:36:57;3.77;;;1.43;;
15931;SDS011;8065;49.520;11.284;2023-09-19T11:39:26;2.57;;;1.60;;
15931;SDS011;8065;49.520;11.284;2023-09-19T11:41:54;1.60;;;1.50;;
15931;SDS011;8065;49.520;11.284;2023-09-19T11:44:35;2.27;;;1.60;;
15931;SDS011;8065;49.520;11.284;2023-09-19T11:47:06;2.47;;;1.50;;
15931;SDS011;8065;49.520;11.284;2023-09-19T11:49:36;1.63;;;1.53;;
15931;SDS011;8065;49.520;11.284;2023-09-19T11:52:08;2.23;;;1.13;;
15931;SDS011;8065;49.520;11.284;2023-09-19T11:54:39;1.70;;;1.60;;
15931;SDS011;8065;49.520;11.284;2023-09-19T11:57:12;4.30;;;1.43;;
15931;SDS011;8065;49.520;11.284;2023-09-19T11:59:51;5.00;;;1.80;;
15931;SDS011;8065;49.520;11.284;2023-09-19T12:02:27;2.00;;;1.50;;
15931;SDS011;8065;49.520;11.284;2023-09-19T12:05:06;1.40;;;1.30;;
15931;SDS011;8065;49.520;11.284;2023-09-19T12:07:42;1.73;;;1.20;;
15931;SDS011;8065;49.520;11.284;2023-09-19T12:10:11;3.07;;;1.50;;
15931;SDS011;8065;49.520;11.284;2023-09-19T12:12:46;1.80;;;1.37;;
15931;SDS011;8065;49.520;11.284;2023-09-19T12:15:22;1.70;;;1.37;;
15931;SDS011;8065;49.520;11.284;2023-09-19T12:17:53;4.13;;;1.37;;
15931;SDS011;8065;49.520;11.284;2023-09-19T12:20:22;2.13;;;1.20;;
15931;SDS011;8065;49.520;11.284;2023-09-19T12:22:50;3.83;;;1.37;;
15931;SDS011;8065;49.520;11.284;2023-09-19T12:25:19;4.83;;;1.60;;
15931;SDS011;8065;49.520;11.284;2023-09-19T12:27:47;2.77;;;1.30;;
15931;SDS011;8065;49.520;11.284;2023-09-19T12:30:21;2.00;;;1.03;;
15931;SDS011;8065;49.520;11.284;2023-09-19T12:32:58;3.17;;;1.50;;
15931;SDS011;8065;49.520;11.284;2023-09-19T12:35:28;2.87;;;1.40;;
15931;SDS011;8065;49.520;11.284;2023-09-19T12:37:59;3.40;;;1.50;;
15931;SDS011;8065;49.520;11.284;2023-09-19T12:40:28;1.23;;;1.10;;
15931;SDS011;8065;49.520;11.284;2023-09-19T12:43:01;3.30;;;1.10;;
15931;SDS011;8065;49.520;11.284;2023-09-19T12:45:32;2.17;;;1.00;;
15931;SDS011;8065;49.520;11.284;2023-09-19T12:51:04;1.70;;;1.23;;
15931;SDS011;8065;49.520;11.284;2023-09-19T12:53:38;3.03;;;1.30;;
15931;SDS011;8065;49.520;11.284;2023-09-19T12:56:08;1.40;;;1.30;;
15931;SDS011;8065;49.520;11.284;2023-09-19T12:58:48;2.63;;;1.13;;
15931;SDS011;8065;49.520;11.284;2023-09-19T13:01:21;2.23;;;1.10;;
15931;SDS011;8065;49.520;11.284;2023-09-19T13:06:43;1.23;;;1.13;;
15931;SDS011;8065;49.520;11.284;2023-09-19T13:09:13;1.20;;;1.10;;
15931;SDS011;8065;49.520;11.284;2023-09-19T13:11:42;3.53;;;1.30;;
15931;SDS011;8065;49.520;11.284;2023-09-19T13:14:14;2.17;;;1.30;;
15931;SDS011;8065;49.520;11.284;2023-09-19T13:16:59;3.47;;;1.10;;
15931;SDS011;8065;49.520;11.284;2023-09-19T13:19:36;2.53;;;1.30;;
15931;SDS011;8065;49.520;11.284;2023-09-19T13:25:07;1.70;;;1.20;;
15931;SDS011;8065;49.520;11.284;2023-09-19T13:27:39;1.73;;;1.33;;
15931;SDS011;8065;49.520;11.284;2023-09-19T13:30:09;1.77;;;1.13;;
15931;SDS011;8065;49.520;11.284;2023-09-19T13:32:41;3.10;;;1.20;;
15931;SDS011;8065;49.520;11.284;2023-09-19T13:35:12;1.30;;;1.20;;
15931;SDS011;8065;49.520;11.284;2023-09-19T13:37:41;1.57;;;1.30;;
15931;SDS011;8065;49.520;11.284;2023-09-19T13:40:12;1.57;;;1.10;;
15931;SDS011;8065;49.520;11.284;2023-09-19T13:42:41;2.10;;;1.33;;
15931;SDS011;8065;49.520;11.284;2023-09-19T13:45:10;1.73;;;1.20;;
15931;SDS011;8065;49.520;11.284;2023-09-19T13:47:45;2.53;;;1.63;;
15931;SDS011;8065;49.520;11.284;2023-09-19T13:50:13;3.90;;;1.50;;
15931;SDS011;8065;49.520;11.284;2023-09-19T13:52:42;3.83;;;1.33;;
15931;SDS011;8065;49.520;11.284;2023-09-19T13:55:12;1.90;;;1.33;;
15931;SDS011;8065;49.520;11.284;2023-09-19T13:57:45;4.93;;;1.20;;
15931;SDS011;8065;49.520;11.284;2023-09-19T14:00:15;1.83;;;1.20;;
15931;SDS011;8065;49.520;11.284;2023-09-19T14:02:46;2.53;;;1.30;;
15931;SDS011;8065;49.520;11.284;2023-09-19T14:05:16;1.37;;;1.10;;
15931;SDS011;8065;49.520;11.284;2023-09-19T14:07:45;1.20;;;1.10;;
15931;SDS011;8065;49.520;11.284;2023-09-19T14:10:14;2.20;;;1.33;;
15931;SDS011;8065;49.520;11.284;2023-09-19T14:12:44;3.90;;;1.50;;
15931;SDS011;8065;49.520;11.284;2023-09-19T14:15:12;2.07;;;1.13;;
15931;SDS011;8065;49.520;11.284;2023-09-19T14:20:11;1.57;;;1.47;;
15931;SDS011;8065;49.520;11.284;2023-09-19T14:22:40;2.87;;;1.20;;
15931;SDS011;8065;49.520;11.284;2023-09-19T14:25:09;2.57;;;1.30;;
15931;SDS011;8065;49.520;11.284;2023-09-19T14:27:37;2.97;;;1.40;;
15931;SDS011;8065;49.520;11.284;2023-09-19T14:30:07;1.83;;;1.40;;
15931;SDS011;8065;49.520;11.284;2023-09-19T14:32:36;2.90;;;1.20;;
15931;SDS011;8065;49.520;11.284;2023-09-19T14:35:04;2.17;;;1.20;;
15931;SDS011;8065;49.520;11.284;2023-09-19T14:37:37;1.47;;;1.30;;
15931;SDS011;8065;49.520;11.284;2023-09-19T14:40:06;1.43;;;1.20;;
15931;SDS011;8065;49.520;11.284;2023-09-19T14:42:38;3.37;;;1.40;;
15931;SDS011;8065;49.520;11.284;2023-09-19T14:45:09;2.10;;;1.40;;
15931;SDS011;8065;49.520;11.284;2023-09-19T14:47:41;2.30;;;1.13;;
15931;SDS011;8065;49.520;11.284;2023-09-19T14:50:10;2.83;;;1.47;;
15931;SDS011;8065;49.520;11.284;2023-09-19T14:52:40;2.30;;;1.30;;
15931;SDS011;8065;49.520;11.284;2023-09-19T14:55:09;2.13;;;1.40;;
15931;SDS011;8065;49.520;11.284;2023-09-19T14:57:40;2.73;;;1.20;;
15931;SDS011;8065;49.520;11.284;2023-09-19T15:00:11;2.03;;;1.27;;
15931;SDS011;8065;49.520;11.284;2023-09-19T15:02:41;3.30;;;1.40;;
15931;SDS011;8065;49.520;11.284;2023-09-19T15:05:10;3.20;;;1.40;;
15931;SDS011;8065;49.520;11.284;2023-09-19T15:07:43;5.67;;;3.40;;
15931;SDS011;8065;49.520;11.284;2023-09-19T15:10:11;2.00;;;1.20;;
15931;SDS011;8065;49.520;11.284;2023-09-19T15:12:39;2.80;;;1.27;;
15931;SDS011;8065;49.520;11.284;2023-09-19T15:15:08;2.70;;;1.30;;
15931;SDS011;8065;49.520;11.284;2023-09-19T15:17:38;3.03;;;1.30;;
15931;SDS011;8065;49.520;11.284;2023-09-19T15:20:06;3.27;;;1.20;;
15931;SDS011;8065;49.520;11.284;2023-09-19T15:22:39;3.83;;;1.07;;
15931;SDS011;8065;49.520;11.284;2023-09-19T15:25:10;1.80;;;1.10;;
15931;SDS011;8065;49.520;11.284;2023-09-19T15:27:38;1.23;;;1.10;;
15931;SDS011;8065;49.520;11.284;2023-09-19T15:30:07;2.07;;;1.30;;
15931;SDS011;8065;49.520;11.284;2023-09-19T15:32:36;1.43;;;1.00;;
15931;SDS011;8065;49.520;11.284;2023-09-19T15:35:05;2.20;;;1.10;;
15931;SDS011;8065;49.520;11.284;2023-09-19T15:37:34;1.33;;;1.00;;
15931;SDS011;8065;49.520;11.284;2023-09-19T15:40:03;2.63;;;1.20;;